Time;durP1;ratioP1;P1;durP2;ratioP2;P2;SDS_P1;SDS_P2;PMS_P1;PMS_P2;Temp;Humidity;BMP_temperature;BMP_pressure;BME280_temperature;BME280_humidity;BME280_pressure;Samples;Min_cycle;Max_cycle;Signal;HPM_P1;HPM_P2
2023/12/03 00:00:40;;;;;;;7.80;4.53;;;4.20;94.20;;;;;;5036705;28;20095;-54
2023/12/03 00:03:07;;;;;;;7.63;4.15;;;4.10;94.30;;;;;;5036836;28;20021;-54
2023/12/03 00:05:37;;;;;;;6.80;4.13;;;4.20;94.40;;;;;;5036608;28;20022;-54
2023/12/03 00:08:03;;;;;;;8.02;4.57;;;4.20;94.50;;;;;;5036478;28;20057;-54
2023/12/03 00:10:29;;;;;;;7.82;4.35;;;4.00;94.10;;;;;;5036586;28;20021;-54
2023/12/03 00:12:55;;;;;;;7.55;4.88;;;4.10;94.10;;;;;;5036931;28;20029;-54
2023/12/03 00:15:24;;;;;;;6.95;4.50;;;4.20;94.40;;;;;;5036589;28;20021;-54
2023/12/03 00:17:51;;;;;;;7.07;4.70;;;4.20;94.50;;;;;;5036363;28;20051;-54
2023/12/03 00:20:17;;;;;;;7.40;4.10;;;4.20;94.50;;;;;;5036039;28;20387;-54
2023/12/03 00:22:43;;;;;;;7.57;4.70;;;4.30;94.80;;;;;;5036469;28;20493;-54
2023/12/03 00:25:09;;;;;;;12.30;5.85;;;4.30;94.60;;;;;;5036301;28;20029;-54
2023/12/03 00:27:35;;;;;;;13.85;7.40;;;4.30;94.10;;;;;;5036454;28;20076;-54
2023/12/03 00:30:01;;;;;;;10.10;5.47;;;4.20;94.20;;;;;;5036299;28;20033;-54
2023/12/03 00:32:27;;;;;;;8.85;5.03;;;4.20;94.60;;;;;;5036245;28;20033;-54
2023/12/03 00:34:53;;;;;;;8.02;4.53;;;4.30;94.90;;;;;;5036200;28;20075;-54
2023/12/03 00:37:18;;;;;;;7.70;4.20;;;4.20;94.90;;;;;;5035913;28;20029;-54
2023/12/03 00:39:44;;;;;;;9.02;3.97;;;4.30;94.70;;;;;;5036115;28;20033;-54
2023/12/03 00:42:10;;;;;;;15.85;7.05;;;4.20;94.70;;;;;;5036078;28;20029;-54
2023/12/03 00:44:36;;;;;;;10.25;4.70;;;4.20;94.80;;;;;;5035944;28;20025;-54
2023/12/03 00:47:02;;;;;;;7.53;4.93;;;4.00;94.50;;;;;;5035899;28;20025;-54
2023/12/03 00:49:28;;;;;;;9.80;5.05;;;4.00;94.20;;;;;;5036012;28;20025;-54
2023/12/03 00:51:54;;;;;;;7.10;4.75;;;3.90;94.70;;;;;;5035865;28;20052;-54
2023/12/03 00:54:20;;;;;;;14.07;5.80;;;3.90;95.20;;;;;;5036039;28;20463;-54
2023/12/03 00:56:46;;;;;;;13.43;6.32;;;3.90;95.50;;;;;;5035864;28;20032;-54
2023/12/03 00:59:11;;;;;;;7.82;5.00;;;4.00;95.20;;;;;;5035853;28;20420;-54
2023/12/03 01:01:37;;;;;;;10.85;6.93;;;4.00;95.10;;;;;;5035903;28;20025;-54
2023/12/03 01:04:03;;;;;;;11.18;6.18;;;4.00;95.20;;;;;;5035772;28;20379;-54
2023/12/03 01:06:29;;;;;;;7.28;4.32;;;3.90;94.70;;;;;;5035969;28;20021;-54
2023/12/03 01:08:55;;;;;;;6.57;4.38;;;4.00;94.70;;;;;;5035593;28;20052;-54
2023/12/03 01:11:21;;;;;;;6.53;4.45;;;4.00;94.70;;;;;;5035618;28;20034;-54
2023/12/03 01:13:47;;;;;;;5.38;3.83;;;4.10;94.40;;;;;;5035562;28;20060;-54
2023/12/03 01:16:16;;;;;;;6.53;4.00;;;4.00;94.10;;;;;;5035486;28;20116;-54
2023/12/03 01:18:43;;;;;;;6.93;3.40;;;4.00;94.40;;;;;;5035618;28;20026;-54
2023/12/03 01:21:09;;;;;;;6.68;3.97;;;4.00;94.00;;;;;;5035463;28;20033;-54
2023/12/03 01:23:35;;;;;;;8.43;4.43;;;4.10;93.70;;;;;;5035533;28;20032;-54
2023/12/03 01:26:01;;;;;;;5.45;3.70;;;4.10;93.60;;;;;;5035406;28;20566;-54
2023/12/03 01:28:27;;;;;;;19.20;8.88;;;4.10;93.80;;;;;;5035445;28;20033;-54
2023/12/03 01:30:53;;;;;;;9.77;5.22;;;4.00;94.00;;;;;;5035265;28;20037;-54
2023/12/03 01:33:19;;;;;;;9.27;5.47;;;3.90;93.60;;;;;;5035450;28;20025;-54
2023/12/03 01:35:44;;;;;;;5.88;3.97;;;4.00;94.40;;;;;;5035332;28;20052;-54
2023/12/03 01:38:10;;;;;;;6.07;3.80;;;4.00;94.10;;;;;;5035282;28;20387;-54
2023/12/03 01:40:36;;;;;;;10.23;5.55;;;3.90;94.40;;;;;;5035223;28;20042;-54
2023/12/03 01:43:02;;;;;;;16.25;7.55;;;3.90;94.90;;;;;;5035297;28;20075;-54
2023/12/03 01:45:28;;;;;;;10.70;6.10;;;3.80;95.80;;;;;;5035310;28;20063;-54
2023/12/03 01:47:55;;;;;;;7.07;4.35;;;3.80;95.70;;;;;;5035274;28;20029;-54
2023/12/03 01:50:22;;;;;;;5.38;3.70;;;3.80;95.70;;;;;;5035221;28;20387;-54
2023/12/03 01:52:49;;;;;;;5.55;4.10;;;3.90;95.90;;;;;;5035166;28;20091;-54
2023/12/03 01:55:18;;;;;;;4.45;3.22;;;3.90;95.90;;;;;;5035132;28;20040;-54
2023/12/03 01:57:45;;;;;;;4.88;3.47;;;3.90;95.30;;;;;;5035225;28;20422;-54
2023/12/03 02:00:11;;;;;;;7.82;3.42;;;3.90;95.70;;;;;;5035193;28;20100;-54
2023/12/03 02:02:40;;;;;;;5.78;3.60;;;3.90;95.40;;;;;;5035252;28;20064;-54
2023/12/03 02:05:06;;;;;;;6.07;3.95;;;3.90;95.50;;;;;;5035069;28;20399;-54
2023/12/03 02:07:32;;;;;;;4.60;3.60;;;3.70;96.50;;;;;;5035075;28;20029;-54
2023/12/03 02:09:59;;;;;;;5.03;3.67;;;3.70;96.40;;;;;;5034850;28;20037;-54
2023/12/03 02:12:26;;;;;;;7.82;3.63;;;3.50;96.50;;;;;;5034986;28;20101;-54
2023/12/03 02:14:52;;;;;;;5.72;3.53;;;3.30;96.80;;;;;;5035239;28;20040;-54
2023/12/03 02:17:17;;;;;;;6.80;4.18;;;3.10;97.40;;;;;;5035080;28;20455;-54
2023/12/03 02:19:43;;;;;;;6.50;3.70;;;3.20;97.80;;;;;;5034975;28;20030;-54
2023/12/03 02:22:09;;;;;;;6.80;3.95;;;3.00;98.20;;;;;;5035007;28;20028;-54
2023/12/03 02:24:35;;;;;;;9.52;5.03;;;3.00;98.70;;;;;;5034685;28;20033;-55
2023/12/03 02:27:01;;;;;;;7.50;4.22;;;3.00;98.70;;;;;;5034774;28;20056;-54
2023/12/03 02:29:26;;;;;;;4.15;3.25;;;2.90;99.20;;;;;;5034909;28;20037;-54
2023/12/03 02:31:52;;;;;;;6.10;3.85;;;2.90;98.90;;;;;;5037407;28;20029;-54
2023/12/03 02:34:18;;;;;;;6.45;4.05;;;3.00;99.50;;;;;;5054624;28;20478;-54
2023/12/03 02:36:44;;;;;;;9.30;4.10;;;3.10;99.80;;;;;;5054498;28;20390;-54
2023/12/03 02:39:10;;;;;;;5.10;3.70;;;3.00;99.90;;;;;;5054647;28;20104;-54
2023/12/03 02:41:36;;;;;;;5.97;3.75;;;2.90;99.90;;;;;;5034491;28;20045;-54
2023/12/03 02:44:02;;;;;;;6.40;3.60;;;3.00;99.90;;;;;;5038269;28;20033;-54
2023/12/03 02:46:28;;;;;;;7.22;3.65;;;3.00;99.60;;;;;;5038219;28;20060;-54
2023/12/03 02:48:54;;;;;;;5.20;3.58;;;2.90;99.60;;;;;;5038326;28;20411;-54
2023/12/03 02:51:20;;;;;;;6.50;3.60;;;3.00;99.80;;;;;;5037818;28;20097;-54
2023/12/03 02:53:47;;;;;;;7.03;4.32;;;2.90;99.80;;;;;;5038037;28;20025;-54
2023/12/03 02:56:13;;;;;;;8.50;3.83;;;2.90;99.80;;;;;;5038068;28;20037;-54
2023/12/03 02:58:40;;;;;;;6.95;4.10;;;2.80;99.80;;;;;;5038127;28;20383;-54
2023/12/03 03:01:06;;;;;;;6.35;3.97;;;2.80;99.80;;;;;;5038049;28;20399;-54
2023/12/03 03:03:32;;;;;;;10.13;4.45;;;2.70;99.90;;;;;;5038007;28;20025;-54
2023/12/03 03:05:58;;;;;;;7.57;4.40;;;2.90;99.90;;;;;;5038002;28;20375;-54
2023/12/03 03:08:24;;;;;;;7.00;4.03;;;3.00;99.90;;;;;;5037752;28;20028;-54
2023/12/03 03:10:50;;;;;;;6.45;4.57;;;2.90;99.60;;;;;;5036482;28;20093;-54
2023/12/03 03:13:16;;;;;;;5.88;4.07;;;3.00;99.70;;;;;;5038107;28;20022;-54
2023/12/03 03:15:41;;;;;;;5.97;4.15;;;3.00;99.50;;;;;;5038200;28;20033;-54
2023/12/03 03:18:07;;;;;;;8.40;4.20;;;2.90;99.20;;;;;;5037829;28;20223;-54
2023/12/03 03:20:34;;;;;;;7.20;4.43;;;3.00;99.30;;;;;;5037709;28;20029;-54
2023/12/03 03:23:00;;;;;;;7.28;4.35;;;3.10;99.40;;;;;;5037607;28;20463;-54
2023/12/03 03:25:26;;;;;;;6.18;3.90;;;3.10;99.20;;;;;;5037456;28;20038;-54
2023/12/03 03:27:52;;;;;;;5.50;3.80;;;3.00;98.90;;;;;;5037474;28;20044;-54
2023/12/03 03:30:18;;;;;;;5.72;3.40;;;2.90;98.70;;;;;;5037576;28;20547;-54
2023/12/03 03:32:44;;;;;;;7.05;4.50;;;3.00;98.30;;;;;;5037471;28;20467;-54
2023/12/03 03:35:09;;;;;;;7.32;4.38;;;3.00;98.60;;;;;;5037445;28;20028;-54
2023/12/03 03:37:35;;;;;;;10.23;5.47;;;3.10;98.40;;;;;;5037406;28;20030;-54
2023/12/03 03:40:01;;;;;;;6.32;4.13;;;3.20;98.40;;;;;;5037215;28;20025;-54
2023/12/03 03:42:27;;;;;;;8.23;4.70;;;3.20;98.00;;;;;;5037272;28;20033;-54
2023/12/03 03:44:53;;;;;;;7.03;4.05;;;3.20;97.80;;;;;;5037214;28;20036;-54
2023/12/03 03:47:19;;;;;;;5.53;3.65;;;3.20;97.30;;;;;;5036984;28;20040;-54
2023/12/03 03:49:45;;;;;;;5.25;3.13;;;3.20;97.30;;;;;;5037234;28;20030;-54
2023/12/03 03:52:11;;;;;;;5.15;3.65;;;3.00;96.90;;;;;;5036982;28;20040;-54
2023/12/03 03:54:41;;;;;;;5.80;3.38;;;3.20;96.70;;;;;;5035816;28;20048;-54
2023/12/03 03:57:07;;;;;;;7.50;3.97;;;3.20;96.20;;;;;;5037022;28;20036;-54
2023/12/03 03:59:33;;;;;;;10.63;4.85;;;3.20;95.60;;;;;;5037145;28;20398;-54
2023/12/03 04:01:58;;;;;;;6.25;4.05;;;3.30;95.60;;;;;;5037002;28;20041;-54
2023/12/03 04:04:24;;;;;;;8.85;4.72;;;3.10;94.60;;;;;;5036784;28;20094;-54
2023/12/03 04:06:50;;;;;;;26.92;8.95;;;3.10;94.90;;;;;;5036793;28;20033;-54
2023/12/03 04:09:16;;;;;;;7.93;3.97;;;3.10;94.90;;;;;;5036593;28;20033;-54
2023/12/03 04:11:46;;;;;;;9.85;4.85;;;3.10;95.10;;;;;;5036599;28;20056;-54
2023/12/03 04:14:16;;;;;;;5.18;3.15;;;3.00;95.90;;;;;;5036758;28;20026;-54
2023/12/03 04:16:43;;;;;;;4.47;3.00;;;3.20;95.40;;;;;;5036517;28;20025;-54
2023/12/03 04:19:10;;;;;;;6.38;3.42;;;3.10;95.30;;;;;;5036241;28;20132;-54
2023/12/03 04:21:36;;;;;;;5.30;2.95;;;3.20;95.00;;;;;;5036832;28;20060;-54
2023/12/03 04:24:03;;;;;;;6.63;3.58;;;3.10;95.00;;;;;;5036480;28;20029;-54
2023/12/03 04:26:29;;;;;;;5.22;3.40;;;3.20;95.30;;;;;;5036277;28;20033;-54
2023/12/03 04:28:55;;;;;;;5.32;3.08;;;3.10;95.80;;;;;;5036314;28;20032;-54
2023/12/03 04:31:28;;;;;;;6.65;3.67;;;3.10;96.00;;;;;;5035994;28;20121;-54
2023/12/03 04:33:55;;;;;;;5.72;3.53;;;3.00;96.10;;;;;;5036339;28;20029;-54
2023/12/03 04:36:27;;;;;;;6.18;3.83;;;3.00;96.50;;;;;;5036015;28;20064;-54
2023/12/03 04:38:54;;;;;;;7.03;3.80;;;2.90;96.80;;;;;;5036162;28;20167;-54
2023/12/03 04:41:20;;;;;;;7.18;4.10;;;2.90;97.20;;;;;;5035976;28;20021;-54
2023/12/03 04:43:46;;;;;;;7.18;4.03;;;3.00;98.00;;;;;;5036171;28;20407;-54
2023/12/03 04:46:12;;;;;;;7.72;4.22;;;3.00;98.50;;;;;;5035821;28;20139;-54
2023/12/03 04:48:41;;;;;;;7.40;5.15;;;3.00;98.30;;;;;;5035825;28;20116;-54
2023/12/03 04:51:07;;;;;;;7.32;4.70;;;3.00;98.10;;;;;;5035881;28;20029;-54
2023/12/03 04:53:33;;;;;;;6.18;4.40;;;3.10;98.50;;;;;;5035902;28;20025;-54
2023/12/03 04:55:59;;;;;;;9.65;5.00;;;3.10;98.80;;;;;;5035862;28;20072;-54
2023/12/03 04:58:25;;;;;;;9.15;4.70;;;3.20;98.00;;;;;;5035798;28;20030;-54
2023/12/03 05:00:52;;;;;;;9.43;4.20;;;3.30;96.70;;;;;;5035649;28;20511;-54
2023/12/03 05:03:18;;;;;;;8.85;4.70;;;3.30;95.60;;;;;;5035783;28;20041;-54
2023/12/03 05:05:44;;;;;;;10.20;5.32;;;3.30;95.50;;;;;;5035445;28;20021;-54
2023/12/03 05:08:10;;;;;;;6.78;4.40;;;3.30;94.80;;;;;;5035591;28;20033;-54
2023/12/03 05:10:36;;;;;;;6.93;4.30;;;3.40;94.30;;;;;;5035811;28;20025;-54
2023/12/03 05:13:01;;;;;;;5.70;3.97;;;3.40;93.80;;;;;;5035637;28;20033;-54
2023/12/03 05:15:27;;;;;;;7.45;3.10;;;3.40;93.80;;;;;;5035546;28;20029;-54
2023/12/03 05:17:53;;;;;;;7.25;3.50;;;3.30;90.80;;;;;;5035300;28;20101;-54
2023/12/03 05:20:19;;;;;;;6.68;3.55;;;3.30;91.10;;;;;;5035600;28;20033;-54
2023/12/03 05:22:45;;;;;;;8.45;3.33;;;3.30;90.80;;;;;;5035512;28;20144;-54
2023/12/03 05:25:11;;;;;;;8.77;3.13;;;3.30;90.20;;;;;;5035425;28;20395;-54
2023/12/03 05:27:37;;;;;;;4.97;3.00;;;3.40;90.10;;;;;;5035495;28;20035;-54
2023/12/03 05:30:04;;;;;;;5.95;3.65;;;3.40;88.70;;;;;;5035265;28;20038;-54
2023/12/03 05:32:30;;;;;;;5.15;3.17;;;3.40;88.00;;;;;;5035322;28;20034;-54
2023/12/03 05:34:56;;;;;;;4.85;2.60;;;3.40;86.70;;;;;;5035474;28;20026;-54
2023/12/03 05:37:22;;;;;;;4.22;2.90;;;3.40;86.10;;;;;;5035210;28;20018;-54
2023/12/03 05:39:48;;;;;;;5.43;3.28;;;3.40;85.00;;;;;;5035229;28;20115;-54
2023/12/03 05:42:14;;;;;;;4.78;2.80;;;3.40;85.30;;;;;;5035360;28;20025;-54
2023/12/03 05:44:40;;;;;;;6.47;3.35;;;3.40;83.80;;;;;;5035290;28;20419;-54
2023/12/03 05:47:05;;;;;;;5.72;2.97;;;3.30;84.60;;;;;;5035057;28;20091;-54
2023/12/03 05:49:31;;;;;;;3.35;2.55;;;3.40;83.60;;;;;;5035078;28;20050;-54
2023/12/03 05:51:57;;;;;;;5.50;3.15;;;3.40;82.10;;;;;;5035099;28;20026;-54
2023/12/03 05:54:23;;;;;;;9.00;3.28;;;3.40;81.10;;;;;;5035259;28;20487;-54
2023/12/03 05:56:49;;;;;;;4.65;2.45;;;3.40;81.80;;;;;;5035241;28;20029;-54
2023/12/03 05:59:15;;;;;;;6.05;2.90;;;3.40;81.20;;;;;;5035138;28;20045;-54
2023/12/03 06:01:41;;;;;;;5.20;3.10;;;3.40;79.90;;;;;;5035230;28;20037;-54
2023/12/03 06:04:07;;;;;;;5.50;3.40;;;3.40;81.00;;;;;;5035166;28;20167;-54
2023/12/03 06:06:34;;;;;;;5.55;3.10;;;3.50;81.90;;;;;;5035174;28;20029;-54
2023/12/03 06:09:01;;;;;;;5.88;3.67;;;3.50;79.80;;;;;;5035298;28;20083;-54
2023/12/03 06:11:27;;;;;;;5.43;3.33;;;3.50;81.00;;;;;;5035029;28;20105;-54
2023/12/03 06:13:56;;;;;;;7.13;4.32;;;3.40;79.90;;;;;;5035162;28;20044;-54
2023/12/03 06:16:22;;;;;;;9.00;4.30;;;3.40;80.20;;;;;;5035098;28;20031;-54
2023/12/03 06:18:48;;;;;;;6.78;3.20;;;3.30;81.00;;;;;;5038651;28;20029;-54
2023/12/03 06:21:14;;;;;;;6.07;2.97;;;3.40;79.60;;;;;;5038828;28;20053;-54
2023/12/03 06:23:40;;;;;;;4.57;3.05;;;3.30;80.80;;;;;;5038764;28;20036;-54
2023/12/03 06:26:07;;;;;;;5.70;3.13;;;3.40;79.30;;;;;;5038607;28;20048;-54
2023/12/03 06:28:33;;;;;;;4.90;2.95;;;3.40;78.90;;;;;;5038659;28;20104;-54
2023/12/03 06:30:58;;;;;;;6.03;3.00;;;3.50;79.30;;;;;;5038360;28;20087;-54
2023/12/03 06:33:24;;;;;;;6.28;3.95;;;3.50;79.00;;;;;;5038744;28;20383;-54
2023/12/03 06:35:51;;;;;;;7.90;3.95;;;3.40;78.60;;;;;;5038532;28;20025;-54
2023/12/03 06:38:17;;;;;;;8.20;3.60;;;3.50;79.00;;;;;;5038337;28;20022;-54
2023/12/03 06:40:43;;;;;;;9.13;4.72;;;3.50;79.10;;;;;;5038334;28;20505;-54
2023/12/03 06:43:09;;;;;;;8.15;4.43;;;3.40;78.80;;;;;;5038400;28;20455;-54
2023/12/03 06:45:36;;;;;;;8.98;4.90;;;3.40;78.80;;;;;;5038241;28;20040;-54
2023/12/03 06:48:02;;;;;;;17.98;12.10;;;3.40;78.00;;;;;;5038378;28;20028;-54
2023/12/03 06:50:28;;;;;;;14.15;5.97;;;3.40;78.60;;;;;;5038019;28;20042;-54
2023/12/03 06:52:54;;;;;;;9.77;4.70;;;3.40;78.50;;;;;;5038417;28;20025;-54
2023/12/03 06:55:21;;;;;;;7.18;4.15;;;3.40;77.50;;;;;;5038302;28;20050;-54
2023/12/03 06:57:47;;;;;;;5.57;3.83;;;3.40;77.50;;;;;;5038315;28;20565;-54
2023/12/03 07:00:13;;;;;;;7.10;3.83;;;3.40;76.90;;;;;;5037895;28;20101;-54
2023/12/03 07:02:39;;;;;;;10.35;4.15;;;3.40;77.60;;;;;;5038041;28;20022;-54
2023/12/03 07:05:05;;;;;;;14.32;5.43;;;3.50;77.20;;;;;;5037999;28;20491;-54
2023/12/03 07:07:31;;;;;;;14.82;6.18;;;3.60;77.70;;;;;;5037903;28;20030;-54
2023/12/03 07:09:57;;;;;;;9.30;4.35;;;3.60;77.90;;;;;;5037788;28;20040;-54
2023/12/03 07:12:23;;;;;;;9.52;5.07;;;3.60;76.80;;;;;;5037793;28;20426;-54
2023/12/03 07:14:49;;;;;;;11.35;6.18;;;3.60;75.20;;;;;;5037792;28;20025;-54
2023/12/03 07:17:15;;;;;;;9.90;4.28;;;3.60;75.10;;;;;;5037595;28;20456;-54
2023/12/03 07:19:44;;;;;;;7.95;4.45;;;3.60;76.60;;;;;;5037778;28;20035;-54
2023/12/03 07:22:10;;;;;;;13.93;5.93;;;3.80;77.30;;;;;;5038101;28;20461;-54
2023/12/03 07:24:40;;;;;;;6.18;2.95;;;3.70;74.30;;;;;;5037428;28;20034;-54
2023/12/03 07:27:07;;;;;;;6.80;4.07;;;3.80;73.60;;;;;;5037456;28;20037;-54
2023/12/03 07:29:34;;;;;;;9.05;4.53;;;3.80;73.50;;;;;;5037268;28;20262;-54
2023/12/03 07:32:00;;;;;;;6.78;3.72;;;3.90;74.10;;;;;;5037553;28;20365;-54
2023/12/03 07:34:27;;;;;;;6.32;3.38;;;3.90;72.70;;;;;;5037437;28;20155;-54
2023/12/03 07:36:53;;;;;;;10.10;4.85;;;3.80;71.80;;;;;;5037380;28;20037;-54
2023/12/03 07:39:19;;;;;;;11.63;5.82;;;3.70;72.20;;;;;;5037340;28;20101;-54
2023/12/03 07:41:51;;;;;;;11.52;5.28;;;3.70;73.00;;;;;;5037209;28;20030;-54
2023/12/03 07:44:17;;;;;;;8.48;4.70;;;3.70;73.80;;;;;;5037563;28;20036;-54
2023/12/03 07:46:43;;;;;;;6.53;3.70;;;3.80;72.50;;;;;;5037123;28;20033;-54
2023/12/03 07:49:09;;;;;;;9.98;4.53;;;3.70;72.10;;;;;;5036930;28;20514;-54
2023/12/03 07:51:35;;;;;;;7.18;3.40;;;3.80;72.70;;;;;;5036973;28;20091;-54
2023/12/03 07:54:01;;;;;;;9.00;4.38;;;3.80;72.00;;;;;;5037065;28;20025;-54
2023/12/03 07:56:40;;;;;;;6.63;4.57;;;3.70;73.20;;;;;;5036906;28;20028;-54
2023/12/03 07:59:06;;;;;;;9.45;5.13;;;3.60;71.70;;;;;;5036999;28;20048;-54
2023/12/03 08:01:32;;;;;;;8.18;4.40;;;3.50;70.40;;;;;;5036865;28;20136;-54
2023/12/03 08:03:58;;;;;;;14.88;6.50;;;3.60;70.80;;;;;;5036758;28;20247;-54
2023/12/03 08:06:24;;;;;;;9.13;5.50;;;3.60;70.60;;;;;;5036745;28;20038;-54
2023/12/03 08:08:52;;;;;;;9.88;4.53;;;3.60;69.00;;;;;;5036682;28;20068;-54
2023/12/03 08:11:19;;;;;;;5.38;3.88;;;3.60;71.20;;;;;;5036564;28;20532;-54
2023/12/03 08:13:46;;;;;;;5.78;3.45;;;3.70;72.20;;;;;;5036767;28;20037;-54
2023/12/03 08:16:11;;;;;;;8.98;3.75;;;3.80;69.10;;;;;;5036296;28;20033;-54
2023/12/03 08:18:38;;;;;;;8.88;4.65;;;3.80;66.30;;;;;;5036436;28;20033;-54
2023/12/03 08:21:04;;;;;;;7.65;4.63;;;3.80;64.20;;;;;;5036531;28;20424;-54
2023/12/03 08:23:32;;;;;;;22.95;10.80;;;3.80;66.50;;;;;;5036468;28;20029;-54
2023/12/03 08:25:58;;;;;;;18.92;8.70;;;3.90;68.50;;;;;;5036398;28;20387;-54
2023/12/03 08:28:24;;;;;;;22.60;12.30;;;3.80;67.50;;;;;;5036387;28;20293;-54
2023/12/03 08:30:50;;;;;;;5.90;3.47;;;4.00;68.70;;;;;;5036282;28;20040;-54
2023/12/03 08:33:16;;;;;;;7.85;4.18;;;4.10;66.80;;;;;;5036334;28;20026;-54
2023/12/03 08:35:43;;;;;;;11.13;5.85;;;4.10;64.10;;;;;;5036229;28;20021;-54
2023/12/03 08:38:09;;;;;;;9.60;5.65;;;4.00;66.90;;;;;;5035952;28;20057;-54
2023/12/03 08:40:35;;;;;;;6.90;4.53;;;4.10;66.00;;;;;;5035559;28;20486;-54
2023/12/03 08:43:00;;;;;;;8.95;4.70;;;4.10;62.50;;;;;;5036118;28;20049;-54
2023/12/03 08:45:26;;;;;;;10.43;5.63;;;4.10;63.90;;;;;;5036028;28;20044;-54
2023/12/03 08:47:53;;;;;;;9.35;5.88;;;4.10;68.20;;;;;;5035868;28;20030;-54
2023/12/03 08:50:19;;;;;;;17.73;9.38;;;4.10;65.70;;;;;;5036149;28;20120;-54
2023/12/03 08:52:45;;;;;;;29.90;14.75;;;4.10;66.70;;;;;;5035807;28;20115;-54
2023/12/03 08:55:10;;;;;;;33.83;18.15;;;4.10;67.50;;;;;;5035967;28;20432;-54
2023/12/03 08:57:39;;;;;;;39.67;17.05;;;4.10;66.70;;;;;;5035860;28;20076;-54
2023/12/03 09:00:08;;;;;;;33.83;15.15;;;4.10;67.70;;;;;;5035603;28;20029;-54
2023/12/03 09:02:34;;;;;;;43.08;23.45;;;4.20;67.80;;;;;;5035555;28;20478;-54
2023/12/03 09:05:00;;;;;;;23.20;11.10;;;4.30;68.80;;;;;;5035786;28;20029;-54
2023/12/03 09:07:27;;;;;;;17.63;9.68;;;4.30;68.50;;;;;;5035600;28;20033;-54
2023/12/03 09:09:53;;;;;;;26.35;11.13;;;4.00;64.60;;;;;;5035498;28;20472;-54
2023/12/03 09:12:19;;;;;;;9.98;5.53;;;4.20;65.40;;;;;;5035490;28;20094;-54
2023/12/03 09:14:44;;;;;;;8.68;5.65;;;4.30;64.00;;;;;;5035752;28;20017;-54
2023/12/03 09:17:10;;;;;;;13.25;6.97;;;4.30;63.30;;;;;;5035476;28;20399;-54
2023/12/03 09:19:36;;;;;;;14.25;8.52;;;4.20;64.20;;;;;;5035365;28;20042;-54
2023/12/03 09:22:02;;;;;;;15.15;7.80;;;4.20;65.20;;;;;;5035443;28;20065;-54
2023/12/03 09:24:28;;;;;;;11.65;6.38;;;4.00;64.70;;;;;;5035541;28;20103;-54
2023/12/03 09:26:54;;;;;;;11.38;7.43;;;4.00;66.50;;;;;;5035381;28;20037;-54
2023/12/03 09:29:20;;;;;;;13.40;7.53;;;4.00;65.30;;;;;;5035411;28;20036;-54
2023/12/03 09:31:46;;;;;;;11.95;6.53;;;4.10;66.70;;;;;;5035430;28;20136;-54
2023/12/03 09:34:12;;;;;;;24.88;9.25;;;4.10;65.40;;;;;;5035615;28;20022;-54
2023/12/03 09:36:37;;;;;;;18.90;10.15;;;4.10;66.90;;;;;;5035239;28;20032;-54
2023/12/03 09:39:06;;;;;;;20.13;9.05;;;4.20;68.60;;;;;;5035374;28;20108;-54
2023/12/03 09:41:33;;;;;;;12.23;6.85;;;4.20;68.30;;;;;;5035378;28;20029;-54
2023/12/03 09:44:05;;;;;;;20.85;11.63;;;4.10;64.00;;;;;;5035237;28;20044;-54
2023/12/03 09:46:34;;;;;;;13.70;7.45;;;4.10;65.90;;;;;;5035192;28;20056;-54
2023/12/03 09:49:03;;;;;;;15.63;7.93;;;4.10;65.00;;;;;;5035281;28;20029;-54
2023/12/03 09:51:32;;;;;;;11.75;6.18;;;4.00;65.90;;;;;;5037199;28;20030;-54
2023/12/03 09:53:59;;;;;;;12.98;7.20;;;4.00;64.60;;;;;;5039291;28;20095;-54
2023/12/03 09:56:26;;;;;;;10.35;7.18;;;3.80;63.50;;;;;;5039427;28;20036;-54
2023/12/03 09:58:52;;;;;;;16.38;6.90;;;3.80;65.10;;;;;;5039238;28;20037;-54
2023/12/03 10:01:20;;;;;;;8.90;5.60;;;3.90;65.90;;;;;;5039261;28;20034;-54
2023/12/03 10:03:45;;;;;;;9.70;6.28;;;4.00;64.90;;;;;;5039133;28;20463;-54
2023/12/03 10:06:11;;;;;;;11.40;6.32;;;3.90;63.80;;;;;;5038923;28;20021;-54
2023/12/03 10:08:39;;;;;;;11.43;6.97;;;3.90;64.80;;;;;;5038996;28;20031;-54
2023/12/03 10:11:07;;;;;;;14.10;8.13;;;4.00;67.50;;;;;;5038818;28;20033;-54
2023/12/03 10:13:34;;;;;;;11.57;6.75;;;4.00;67.10;;;;;;5038964;28;20025;-54
2023/12/03 10:16:00;;;;;;;17.15;7.10;;;4.20;65.70;;;;;;5038826;28;20022;-54
2023/12/03 10:18:26;;;;;;;10.95;5.95;;;4.20;65.30;;;;;;5038998;28;20032;-54
2023/12/03 10:21:05;;;;;;;14.20;6.72;;;4.30;64.40;;;;;;5038655;28;20087;-54
2023/12/03 10:23:31;;;;;;;10.68;6.93;;;4.30;63.70;;;;;;5038792;28;20026;-54
2023/12/03 10:26:08;;;;;;;11.70;7.53;;;4.40;65.60;;;;;;5038690;28;20092;-54
2023/12/03 10:28:34;;;;;;;9.90;6.22;;;4.50;64.40;;;;;;5038690;28;20018;-54
2023/12/03 10:31:00;;;;;;;10.45;6.50;;;4.40;62.70;;;;;;5038420;28;20398;-54
2023/12/03 10:33:26;;;;;;;11.25;6.93;;;4.50;61.90;;;;;;5038617;28;20032;-54
2023/12/03 10:35:59;;;;;;;11.50;6.93;;;4.40;61.30;;;;;;5038613;28;20594;-54
2023/12/03 10:38:25;;;;;;;11.73;7.90;;;4.50;64.00;;;;;;5038425;28;20394;-54
2023/12/03 10:40:51;;;;;;;12.60;7.18;;;4.60;63.10;;;;;;5038452;28;20144;-54
2023/12/03 10:43:17;;;;;;;12.35;7.28;;;4.50;62.60;;;;;;5038336;28;20033;-54
2023/12/03 10:45:47;;;;;;;14.15;6.80;;;4.60;62.20;;;;;;5038488;28;20371;-54
2023/12/03 10:48:13;;;;;;;10.40;6.18;;;4.60;61.80;;;;;;5038250;28;20030;-54
2023/12/03 10:50:43;;;;;;;8.65;5.78;;;4.70;61.70;;;;;;5038229;28;20491;-54
2023/12/03 10:53:10;;;;;;;11.15;6.65;;;4.90;62.60;;;;;;5038164;28;20056;-54
2023/12/03 10:55:36;;;;;;;12.82;6.63;;;4.70;58.40;;;;;;5038358;28;20018;-54
2023/12/03 10:58:03;;;;;;;20.35;10.30;;;4.60;60.60;;;;;;5038164;28;20591;-54
2023/12/03 11:00:40;;;;;;;10.50;5.95;;;4.70;61.50;;;;;;5038038;28;20041;-54
2023/12/03 11:03:09;;;;;;;11.55;7.90;;;5.10;60.90;;;;;;5037416;28;20037;-54
2023/12/03 11:05:50;;;;;;;10.82;5.72;;;5.30;59.20;;;;;;5038333;28;20034;-54
2023/12/03 11:08:16;;;;;;;10.75;5.80;;;5.40;58.30;;;;;;5037897;28;20109;-54
2023/12/03 11:10:44;;;;;;;12.30;6.47;;;5.40;57.60;;;;;;5037917;28;20026;-54
2023/12/03 11:13:11;;;;;;;12.55;5.90;;;5.40;56.20;;;;;;5037732;28;20060;-54
2023/12/03 11:15:37;;;;;;;9.57;5.85;;;5.60;57.40;;;;;;5037777;28;20103;-54
2023/12/03 11:18:05;;;;;;;7.18;5.00;;;5.40;57.30;;;;;;5037579;28;20037;-54
2023/12/03 11:20:38;;;;;;;8.60;5.55;;;5.50;55.80;;;;;;5037664;28;20038;-54
2023/12/03 11:23:38;;;;;;;15.55;7.97;;;5.50;55.80;;;;;;5037864;28;20502;-54
2023/12/03 11:26:12;;;;;;;13.70;6.18;;;5.50;56.00;;;;;;5021469;28;20046;-54
2023/12/03 11:28:54;;;;;;;15.02;7.07;;;5.40;52.80;;;;;;5037603;28;20090;-54
2023/12/03 11:31:23;;;;;;;9.43;5.40;;;5.60;53.90;;;;;;5037395;28;20053;-54
2023/12/03 11:33:59;;;;;;;7.30;5.03;;;5.40;52.50;;;;;;5037430;28;20030;-54
2023/12/03 11:36:47;;;;;;;7.60;4.90;;;5.50;56.00;;;;;;5037326;28;20018;-54
2023/12/03 11:39:15;;;;;;;9.77;5.78;;;5.40;55.10;;;;;;5037207;28;20471;-54
2023/12/03 11:41:44;;;;;;;9.80;5.85;;;5.50;53.50;;;;;;5037242;28;20037;-54
2023/12/03 11:44:26;;;;;;;9.50;4.95;;;5.60;54.50;;;;;;5037255;28;20075;-54
2023/12/03 11:47:13;;;;;;;16.48;8.57;;;5.20;51.20;;;;;;5037472;28;20121;-54
2023/12/03 11:49:42;;;;;;;9.07;5.47;;;5.00;54.90;;;;;;5037196;28;20037;-54
2023/12/03 11:52:08;;;;;;;9.63;6.03;;;5.20;53.40;;;;;;5037114;28;20037;-54
2023/12/03 11:54:49;;;;;;;10.68;6.53;;;5.40;55.60;;;;;;5036984;28;20107;-54
2023/12/03 11:57:15;;;;;;;;;;;5.10;54.50;;;;;;5037415;28;20025;-54
2023/12/03 11:59:44;;;;;;;8.05;5.88;;;5.40;54.70;;;;;;5036930;28;19919;-54
2023/12/03 12:02:11;;;;;;;11.23;6.05;;;5.20;53.60;;;;;;5036899;28;20028;-54
2023/12/03 12:04:37;;;;;;;9.80;5.68;;;5.50;54.40;;;;;;5036789;28;20382;-54
2023/12/03 12:07:13;;;;;;;11.18;5.95;;;5.50;52.50;;;;;;5036585;28;20100;-54
2023/12/03 12:09:39;;;;;;;13.70;7.25;;;5.60;53.20;;;;;;5036837;28;20064;-54
2023/12/03 12:12:05;;;;;;;11.38;6.68;;;5.50;53.60;;;;;;5036760;28;20503;-54
2023/12/03 12:14:31;;;;;;;10.27;6.30;;;5.60;53.00;;;;;;5035873;28;20018;-54
2023/12/03 12:16:57;;;;;;;10.32;5.97;;;5.50;55.10;;;;;;5036341;28;20033;-53
2023/12/03 12:19:23;;;;;;;11.23;6.75;;;5.60;52.80;;;;;;5036812;28;20336;-54
2023/12/03 12:21:56;;;;;;;11.68;6.70;;;5.50;53.70;;;;;;5036415;28;20044;-54
2023/12/03 12:24:23;;;;;;;10.07;6.28;;;5.40;53.90;;;;;;5036760;28;20030;-53
2023/12/03 12:26:54;;;;;;;11.05;5.90;;;5.50;52.80;;;;;;5036356;28;20033;-53
2023/12/03 12:29:22;;;;;;;8.20;5.47;;;5.60;54.10;;;;;;5034920;28;20087;-53
2023/12/03 12:31:48;;;;;;;8.88;6.03;;;5.50;50.90;;;;;;5036322;28;20025;-53
2023/12/03 12:34:14;;;;;;;11.70;6.43;;;5.50;51.80;;;;;;5036278;28;20103;-54
2023/12/03 12:36:43;;;;;;;10.88;6.00;;;5.50;51.00;;;;;;5036115;28;20036;-53
2023/12/03 12:39:28;;;;;;;9.85;5.65;;;5.40;51.60;;;;;;5036209;28;20021;-54
2023/12/03 12:41:57;;;;;;;14.25;6.55;;;5.40;49.50;;;;;;5036097;28;20065;-53
2023/12/03 12:44:42;;;;;;;17.45;8.02;;;5.20;50.60;;;;;;5036162;28;20089;-54
2023/12/03 12:47:09;;;;;;;19.02;7.45;;;5.10;52.70;;;;;;5016676;28;20037;-53
2023/12/03 12:49:36;;;;;;;18.90;10.32;;;5.40;52.40;;;;;;5016246;28;20062;-54
2023/12/03 12:52:15;;;;;;;9.18;6.57;;;5.50;51.00;;;;;;5016061;28;20037;-53